Time;durP1;ratioP1;P1;durP2;ratioP2;P2;SDS_P1;SDS_P2;PMS_P1;PMS_P2;Temp;Humidity;BMP_temperature;BMP_pressure;BME280_temperature;BME280_humidity;BME280_pressure;Samples;Min_cycle;Max_cycle;Signal;HPM_P1;HPM_P2
2023/05/18 00:02:00;;;;;;;7.68;4.30;;;6.20;99.90;;;5.65;100.00;97860.22;4987447;28;20103;-35
2023/05/18 00:04:27;;;;;;;7.28;3.80;;;6.30;99.90;;;5.68;100.00;97862.75;4987794;28;23221;-35
2023/05/18 00:06:55;;;;;;;8.25;4.63;;;6.40;99.90;;;5.73;100.00;97857.50;4988857;28;20496;-35
2023/05/18 00:09:25;;;;;;;9.95;4.57;;;6.40;99.90;;;5.73;100.00;97853.13;4988712;28;20557;-35
2023/05/18 00:11:52;;;;;;;7.15;4.35;;;6.40;99.90;;;5.76;100.00;97857.47;4984282;28;20029;-35
2023/05/18 00:14:18;;;;;;;12.20;6.20;;;6.40;99.90;;;5.71;100.00;97851.41;4992214;28;20429;-35
2023/05/18 00:16:44;;;;;;;9.43;5.22;;;6.40;99.90;;;5.73;100.00;97847.03;4989496;28;20443;-35
2023/05/18 00:19:13;;;;;;;8.90;6.07;;;6.30;99.90;;;5.57;100.00;97827.16;4989272;28;20030;-35
2023/05/18 00:21:42;;;;;;;9.65;5.10;;;6.30;99.90;;;5.64;100.00;97839.28;4987925;28;20034;-35
2023/05/18 00:24:12;;;;;;;8.48;5.35;;;6.30;99.90;;;5.61;100.00;97829.69;4988924;28;20042;-35
2023/05/18 00:26:39;;;;;;;9.20;5.45;;;6.20;99.90;;;5.49;100.00;97815.00;4982985;28;20051;-35
2023/05/18 00:29:05;;;;;;;8.15;5.32;;;6.20;99.90;;;5.61;100.00;97823.59;4990488;28;20026;-35
2023/05/18 00:31:35;;;;;;;8.73;5.60;;;6.20;99.90;;;5.63;100.00;97833.16;4988616;28;20033;-35
2023/05/18 00:34:19;;;;;;;10.68;5.68;;;6.20;99.90;;;5.67;100.00;97836.59;4993792;28;20437;-35
2023/05/18 00:36:45;;;;;;;8.93;5.43;;;6.30;99.90;;;5.69;100.00;97834.88;4989299;28;20064;-35
2023/05/18 00:39:11;;;;;;;8.50;5.20;;;6.30;99.90;;;5.72;100.00;97827.84;4991698;28;20038;-35
2023/05/18 00:41:37;;;;;;;9.27;5.65;;;6.30;99.90;;;5.77;100.00;97833.03;4988605;28;20407;-37
2023/05/18 00:44:03;;;;;;;7.43;5.32;;;6.40;99.90;;;5.81;100.00;97834.72;4991748;28;21080;-36
2023/05/18 00:46:29;;;;;;;9.77;5.45;;;6.40;99.90;;;5.82;100.00;97839.06;4991539;28;20869;-36
2023/05/18 00:48:56;;;;;;;9.00;5.22;;;6.40;99.90;;;5.78;100.00;97829.53;4989518;28;20030;-37
2023/05/18 00:51:23;;;;;;;9.18;6.20;;;6.40;99.90;;;5.80;100.00;97840.00;4988510;28;20026;-36
2023/05/18 00:53:52;;;;;;;12.30;6.15;;;6.40;99.90;;;5.76;100.00;97839.16;4986720;28;20663;-36
2023/05/18 00:56:22;;;;;;;10.88;5.90;;;6.40;99.90;;;5.72;100.00;97835.72;4986341;28;20030;-36
2023/05/18 00:58:50;;;;;;;11.18;5.43;;;6.30;99.90;;;5.63;100.00;97822.69;5003616;28;20041;-35
2023/05/18 01:01:18;;;;;;;11.02;5.28;;;6.30;99.90;;;5.65;100.00;97830.53;4989969;28;20100;-35
2023/05/18 01:03:44;;;;;;;8.85;5.32;;;6.20;99.90;;;5.59;100.00;97817.53;4989929;28;20541;-35
2023/05/18 01:06:11;;;;;;;12.95;6.07;;;6.30;99.90;;;5.62;100.00;97820.13;4994186;28;20124;-35
2023/05/18 01:08:38;;;;;;;9.85;5.70;;;6.20;99.90;;;5.67;100.00;97837.50;4990649;28;20030;-35
2023/05/18 01:11:24;;;;;;;8.95;5.47;;;6.30;99.90;;;5.67;100.00;97840.13;4990147;28;20226;-35
2023/05/18 01:14:45;;;;;;;8.52;5.13;;;6.20;99.90;;;5.65;100.00;97835.75;5010430;28;20214;-35
2023/05/18 01:17:22;;;;;;;10.18;5.32;;;6.20;99.90;;;5.60;100.00;97829.69;4990925;28;20123;-36
2023/05/18 01:19:51;;;;;;;7.40;4.65;;;6.20;99.90;;;5.53;100.00;97827.16;5009111;28;20135;-35
2023/05/18 01:22:55;;;;;;;10.15;5.32;;;6.10;99.90;;;5.43;100.00;97833.34;4991066;28;20105;-35
2023/05/18 01:25:33;;;;;;;9.90;5.50;;;6.10;99.90;;;5.31;100.00;97842.22;5002245;28;20038;-35
2023/05/18 01:28:12;;;;;;;10.63;5.57;;;5.90;99.90;;;5.24;100.00;97831.78;4988477;28;20035;-35
2023/05/18 01:30:40;;;;;;;14.38;5.20;;;5.80;99.90;;;5.16;100.00;97830.09;4990934;28;20087;-35
2023/05/18 01:33:11;;;;;;;9.85;5.53;;;5.80;99.90;;;5.00;100.00;97818.06;4988964;28;20042;-35
2023/05/18 01:35:40;;;;;;;11.52;5.05;;;5.70;99.90;;;5.00;100.00;97827.66;4986738;28;20104;-35
2023/05/18 01:38:06;;;;;;;10.00;5.20;;;5.60;99.90;;;4.96;100.00;97830.28;4984662;28;20551;-35
2023/05/18 01:40:38;;;;;;;8.45;5.05;;;5.50;99.90;;;4.91;100.00;97832.06;4985606;28;20033;-35
2023/05/18 01:43:10;;;;;;;9.57;5.07;;;5.50;99.90;;;4.81;100.00;97817.34;4986173;28;20030;-35
2023/05/18 01:45:43;;;;;;;9.55;5.45;;;5.50;99.90;;;4.78;100.00;97823.44;4984845;28;20034;-35
2023/05/18 01:48:10;;;;;;;10.77;5.72;;;5.40;99.90;;;4.66;100.00;97814.81;4982192;28;20457;-35
2023/05/18 01:50:42;;;;;;;8.80;5.38;;;5.30;99.90;;;4.59;100.00;97812.25;4980418;28;20056;-35
2023/05/18 01:53:22;;;;;;;9.40;5.28;;;5.20;99.90;;;4.63;100.00;97825.28;4982715;28;20473;-35
2023/05/18 01:55:51;;;;;;;9.38;5.20;;;5.20;99.90;;;4.57;100.00;97820.97;4982222;28;20034;-35
2023/05/18 01:58:19;;;;;;;9.73;5.28;;;5.20;99.90;;;4.55;100.00;97820.97;4982718;28;20080;-35
2023/05/18 02:00:46;;;;;;;9.07;5.53;;;5.10;99.90;;;4.50;100.00;97827.97;4984536;28;20042;-35
2023/05/18 02:03:13;;;;;;;10.73;5.90;;;5.10;99.90;;;4.47;100.00;97821.88;4989289;28;20072;-35
2023/05/18 02:05:38;;;;;;;12.40;5.63;;;5.10;99.90;;;4.38;100.00;97815.00;4990864;28;20061;-35
2023/05/18 02:08:04;;;;;;;10.57;5.65;;;5.00;99.90;;;4.40;100.00;97819.34;4993152;28;20034;-35
2023/05/18 02:10:30;;;;;;;11.18;6.00;;;5.00;99.90;;;4.37;100.00;97819.34;4985510;28;20022;-35
2023/05/18 02:12:56;;;;;;;10.15;5.45;;;5.00;99.90;;;4.37;100.00;97819.34;4986831;28;20033;-35
2023/05/18 02:15:22;;;;;;;10.52;5.57;;;5.00;99.90;;;4.37;100.00;97813.25;4985176;28;20434;-35
2023/05/18 02:17:47;;;;;;;9.80;4.88;;;5.00;99.90;;;4.33;100.00;97817.63;4982204;28;20507;-35
2023/05/18 02:20:17;;;;;;;9.00;5.45;;;4.90;99.90;;;4.30;100.00;97812.41;4986570;28;20037;-35
2023/05/18 02:22:43;;;;;;;9.07;5.63;;;4.90;99.90;;;4.23;100.00;97807.25;4983895;28;20594;-35
2023/05/18 02:25:09;;;;;;;9.90;5.78;;;4.90;99.90;;;4.23;100.00;97809.84;4986062;28;20038;-35
2023/05/18 02:27:35;;;;;;;10.35;6.18;;;4.80;99.90;;;4.19;100.00;97819.44;4989287;28;20037;-35
2023/05/18 02:30:04;;;;;;;10.32;5.60;;;4.80;99.90;;;4.15;100.00;97817.72;4981439;28;20038;-35
2023/05/18 02:32:31;;;;;;;10.55;5.60;;;4.70;99.90;;;4.12;100.00;97810.75;4982980;28;20418;-35
2023/05/18 02:35:01;;;;;;;8.50;4.95;;;4.80;99.90;;;4.09;100.00;97817.75;4979412;28;20107;-35
2023/05/18 02:37:27;;;;;;;11.70;6.03;;;4.70;99.90;;;4.04;100.00;97801.22;4981462;28;20030;-35
2023/05/18 02:39:52;;;;;;;9.07;5.60;;;4.70;99.90;;;4.01;100.00;97802.97;4978488;28;20046;-35
2023/05/18 02:42:18;;;;;;;12.00;5.50;;;4.70;99.90;;;3.95;100.00;97805.63;4985513;28;20048;-35
2023/05/18 02:44:44;;;;;;;10.18;5.50;;;4.60;99.90;;;3.94;100.00;97803.88;4978273;28;20426;-35
2023/05/18 02:47:10;;;;;;;9.25;5.50;;;4.60;99.90;;;3.91;100.00;97803.03;4983223;28;20029;-35
2023/05/18 02:49:35;;;;;;;10.70;5.45;;;4.50;99.90;;;3.85;100.00;97803.91;4981702;28;20538;-35
2023/05/18 02:52:01;;;;;;;9.77;5.60;;;4.50;99.90;;;3.81;100.00;97803.06;4979709;28;20034;-35
2023/05/18 02:54:27;;;;;;;11.95;5.25;;;4.40;99.90;;;3.76;100.00;97796.13;4979497;28;20034;-35
2023/05/18 02:56:55;;;;;;;8.98;5.15;;;4.40;99.90;;;3.69;100.00;97792.66;4977804;28;20061;-35
2023/05/18 02:59:21;;;;;;;10.90;4.85;;;4.40;99.90;;;3.61;100.00;97770.97;4964685;28;20776;-35
2023/05/18 03:01:47;;;;;;;10.10;5.90;;;4.30;99.90;;;3.66;100.00;97792.69;4982476;28;20033;-35
2023/05/18 03:04:12;;;;;;;10.07;6.13;;;4.30;99.90;;;3.64;100.00;97799.63;4986752;28;20040;-35
2023/05/18 03:06:39;;;;;;;10.27;6.55;;;4.30;99.90;;;3.59;100.00;97799.66;4985337;28;20047;-35
2023/05/18 03:09:04;;;;;;;10.88;6.07;;;4.30;99.90;;;3.58;100.00;97802.28;4983576;28;21968;-35
2023/05/18 03:11:30;;;;;;;9.73;6.72;;;4.30;99.90;;;3.58;100.00;97805.75;4985327;28;20033;-35
2023/05/18 03:13:56;;;;;;;9.65;5.82;;;4.20;99.90;;;3.50;100.00;97789.28;4984702;28;20128;-35
2023/05/18 03:16:27;;;;;;;11.18;6.20;;;4.20;99.90;;;3.57;100.00;97800.53;4988462;28;20034;-35
2023/05/18 03:18:57;;;;;;;8.25;5.45;;;4.20;99.90;;;3.52;100.00;97797.94;4987161;28;20653;-35
2023/05/18 03:21:23;;;;;;;11.25;6.50;;;4.20;99.90;;;3.51;100.00;97792.72;4988356;28;20253;-35
2023/05/18 03:23:49;;;;;;;14.88;7.13;;;4.20;99.90;;;3.51;100.00;97804.03;4988774;28;20041;-35
2023/05/18 03:26:15;;;;;;;11.75;6.70;;;4.20;99.90;;;3.47;100.00;97797.09;4989007;28;20037;-35
2023/05/18 03:28:41;;;;;;;10.95;6.63;;;4.10;99.90;;;3.42;100.00;97796.22;4986039;28;20030;-35
2023/05/18 03:31:07;;;;;;;9.65;6.45;;;4.10;99.90;;;3.46;100.00;97802.31;4989404;28;20053;-35
2023/05/18 03:33:33;;;;;;;12.73;6.40;;;4.10;99.90;;;3.42;100.00;97798.84;4986101;28;20030;-35
2023/05/18 03:36:03;;;;;;;9.68;6.60;;;4.10;99.90;;;3.41;100.00;97786.66;4973887;28;23369;-35
2023/05/18 03:38:29;;;;;;;12.32;6.90;;;4.10;99.90;;;3.44;100.00;97799.69;4987193;28;20038;-35
2023/05/18 03:40:55;;;;;;;12.32;6.70;;;4.10;99.90;;;3.44;100.00;97799.69;4988104;28;20034;-35
2023/05/18 03:43:24;;;;;;;10.98;6.35;;;4.10;99.90;;;3.44;100.00;97797.09;4988834;28;20031;-35
2023/05/18 03:45:49;;;;;;;11.98;6.70;;;4.10;99.90;;;3.46;100.00;97807.53;4989885;28;20117;-35
2023/05/18 03:48:16;;;;;;;9.82;6.07;;;4.10;99.90;;;3.47;100.00;97801.44;4987432;28;20059;-35
2023/05/18 03:50:42;;;;;;;12.07;5.95;;;4.10;99.90;;;3.37;100.00;97785.78;4978808;28;20035;-35
2023/05/18 03:53:08;;;;;;;9.48;5.53;;;4.10;99.90;;;3.47;100.00;97804.06;4980291;28;20855;-35
2023/05/18 03:55:34;;;;;;;10.25;5.97;;;4.10;99.90;;;3.48;100.00;97806.63;4983305;28;20026;-35
2023/05/18 03:58:00;;;;;;;10.10;6.10;;;4.20;99.90;;;3.49;100.00;97803.16;4980800;28;20022;-35
2023/05/18 04:00:26;;;;;;;9.05;5.78;;;4.20;99.90;;;3.54;100.00;97813.59;4983231;28;20150;-35
2023/05/18 04:02:51;;;;;;;9.75;5.55;;;4.20;99.90;;;3.57;100.00;97827.50;4981675;28;20034;-35
2023/05/18 04:05:18;;;;;;;10.10;5.72;;;4.30;99.90;;;3.63;100.00;97826.63;4984084;28;20069;-35
2023/05/18 04:07:45;;;;;;;9.65;5.43;;;4.30;99.90;;;3.65;100.00;97821.41;4992352;28;20604;-35
2023/05/18 04:10:12;;;;;;;10.70;5.35;;;4.30;99.90;;;3.70;100.00;97820.50;4988018;28;20520;-35
2023/05/18 04:12:38;;;;;;;11.48;5.75;;;4.40;99.90;;;3.76;100.00;97822.22;4991132;28;20034;-35
2023/05/18 04:15:05;;;;;;;9.93;5.85;;;4.40;99.90;;;3.81;100.00;97817.88;4987073;28;20041;-35
2023/05/18 04:17:30;;;;;;;10.55;6.10;;;4.50;99.90;;;3.82;100.00;97828.31;4988540;28;20068;-34
2023/05/18 04:19:56;;;;;;;10.13;6.03;;;4.50;99.90;;;3.88;100.00;97821.34;4981484;28;20482;-35
2023/05/18 04:22:22;;;;;;;12.55;6.07;;;4.50;99.90;;;3.93;100.00;97830.88;4982795;28;20030;-35
2023/05/18 04:24:47;;;;;;;10.68;5.80;;;4.60;99.90;;;3.95;100.00;97828.25;4982847;28;20141;-35
2023/05/18 04:27:14;;;;;;;10.23;5.88;;;4.60;99.90;;;3.98;100.00;97826.50;4983422;28;22061;-35
2023/05/18 04:29:42;;;;;;;11.82;5.78;;;4.60;99.90;;;4.03;100.00;97828.22;4984497;28;20029;-35
2023/05/18 04:32:09;;;;;;;10.15;5.68;;;4.70;99.90;;;4.12;100.00;97839.47;4987172;28;20037;-35
2023/05/18 04:34:36;;;;;;;11.02;5.70;;;4.80;99.90;;;4.21;100.00;97834.22;4985101;28;20118;-35
2023/05/18 04:37:04;;;;;;;9.68;5.72;;;4.80;99.90;;;4.29;100.00;97841.13;4983844;28;20600;-35
2023/05/18 04:39:31;;;;;;;9.55;6.03;;;4.90;99.90;;;4.32;100.00;97847.22;4974152;28;20068;-35
2023/05/18 04:41:57;;;;;;;8.73;5.38;;;5.00;99.90;;;4.39;100.00;97841.09;4981025;28;20242;-35
2023/05/18 04:44:27;;;;;;;12.63;5.85;;;5.00;99.90;;;4.44;100.00;97845.44;4983152;28;20651;-35
2023/05/18 04:46:56;;;;;;;9.27;5.47;;;5.10;99.90;;;4.50;100.00;97841.03;4981997;28;20089;-35
2023/05/18 04:49:22;;;;;;;7.45;5.35;;;5.10;99.90;;;4.57;100.00;97847.09;4982249;28;20393;-35
2023/05/18 04:51:55;;;;;;;10.82;5.35;;;5.20;99.90;;;4.63;100.00;97846.19;4981866;28;20053;-35
2023/05/18 04:54:29;;;;;;;11.15;5.80;;;5.20;99.90;;;4.70;100.00;97847.88;4985449;28;20037;-36
2023/05/18 04:56:56;;;;;;;7.22;4.80;;;5.30;99.90;;;4.76;100.00;97845.25;4984695;28;20046;-35
2023/05/18 04:59:27;;;;;;;10.63;5.50;;;5.40;99.90;;;4.78;100.00;97846.94;4983169;28;20030;-35
2023/05/18 05:01:53;;;;;;;11.57;6.03;;;5.40;99.90;;;4.83;100.00;97848.66;4984273;28;20045;-35
2023/05/18 05:04:20;;;;;;;10.40;5.03;;;5.50;99.90;;;4.91;100.00;97854.72;4979728;28;20034;-35
2023/05/18 05:06:46;;;;;;;8.43;5.32;;;5.50;99.90;;;4.99;100.00;97850.31;4986057;28;20583;-35
2023/05/18 05:09:13;;;;;;;12.88;6.07;;;5.60;99.90;;;5.00;100.00;97846.81;4981861;28;20557;-35
2023/05/18 05:11:40;;;;;;;8.50;5.43;;;5.70;99.90;;;5.10;100.00;97853.69;4989752;28;20498;-35
2023/05/18 05:14:06;;;;;;;12.23;5.57;;;5.70;99.90;;;5.14;100.00;97858.03;4991545;28;20029;-36
2023/05/18 05:16:32;;;;;;;10.18;6.03;;;5.80;99.90;;;5.22;100.00;97857.09;4989926;28;20030;-35
2023/05/18 05:18:58;;;;;;;9.48;5.22;;;5.90;99.90;;;5.24;100.00;97850.09;4990603;28;20025;-35
2023/05/18 05:21:24;;;;;;;8.57;4.65;;;6.00;99.90;;;5.42;100.00;97860.41;4990903;28;20033;-35
2023/05/18 05:23:50;;;;;;;10.73;5.05;;;6.10;99.90;;;5.48;100.00;97849.03;4994072;28;20031;-35
2023/05/18 05:26:16;;;;;;;9.25;4.63;;;6.10;99.90;;;5.59;100.00;97857.63;4991845;28;20761;-35
2023/05/18 05:28:42;;;;;;;9.70;4.70;;;6.20;99.90;;;5.67;100.00;97857.53;4989987;28;20113;-35
2023/05/18 05:31:08;;;;;;;9.98;4.85;;;6.30;99.90;;;5.79;100.00;97854.81;4987595;28;20022;-35
2023/05/18 05:33:34;;;;;;;9.13;4.63;;;6.40;99.90;;;5.91;100.00;97861.69;4991000;28;20034;-35
2023/05/18 05:36:00;;;;;;;7.22;4.75;;;6.50;99.90;;;6.08;100.00;97857.16;4990960;28;20597;-35
2023/05/18 05:38:25;;;;;;;12.15;4.85;;;6.60;99.90;;;6.45;100.00;97861.06;4991749;28;20087;-35
2023/05/18 05:40:51;;;;;;;7.53;4.50;;;6.80;99.90;;;6.75;100.00;97869.38;4993741;28;20042;-35
2023/05/18 05:43:17;;;;;;;11.13;4.75;;;7.10;99.90;;;7.01;100.00;97861.13;4990339;28;22029;-36
2023/05/18 05:45:42;;;;;;;7.18;4.00;;;7.30;99.90;;;7.12;100.00;97869.69;4989057;28;20482;-36
2023/05/18 05:48:09;;;;;;;10.30;4.25;;;7.40;99.90;;;7.15;100.00;97871.44;4987780;28;20041;-36
2023/05/18 05:50:35;;;;;;;10.50;4.13;;;7.50;99.90;;;7.25;100.00;97876.50;4979694;28;20119;-38
2023/05/18 05:53:00;;;;;;;12.45;4.30;;;7.60;99.90;;;7.33;100.00;97868.50;4984224;28;20067;-37
2023/05/18 05:55:26;;;;;;;8.27;4.22;;;7.70;99.90;;;7.33;100.00;97870.25;4982358;28;20038;-36
2023/05/18 05:57:52;;;;;;;9.45;3.65;;;7.80;99.90;;;7.38;100.00;97871.91;4982105;28;20092;-36
2023/05/18 06:00:18;;;;;;;8.68;3.35;;;7.90;99.90;;;7.44;100.00;97870.94;4983434;28;20865;-37
2023/05/18 06:02:44;;;;;;;9.93;3.72;;;7.90;99.90;;;7.54;100.00;97872.53;4980100;28;20661;-37
2023/05/18 06:05:09;;;;;;;11.65;3.00;;;8.00;99.90;;;7.70;100.00;97869.63;4982701;28;20033;-36
2023/05/18 06:07:35;;;;;;;8.93;3.30;;;8.10;99.90;;;7.78;100.00;97865.09;4982956;28;20063;-36
2023/05/18 06:10:01;;;;;;;7.20;3.17;;;8.20;99.90;;;7.88;100.00;97865.78;4981795;28;20025;-37
2023/05/18 06:12:27;;;;;;;5.70;3.25;;;8.40;99.90;;;8.06;100.00;97875.97;4981835;28;20784;-36
2023/05/18 06:14:57;;;;;;;5.88;2.92;;;8.50;99.90;;;8.24;100.00;97874.75;4984413;28;20034;-37
2023/05/18 06:17:26;;;;;;;8.15;3.35;;;8.70;99.90;;;8.42;100.00;97868.28;4988575;28;20482;-37
2023/05/18 06:19:53;;;;;;;5.90;2.88;;;8.80;99.90;;;8.62;100.00;97875.72;4991998;28;20406;-37
2023/05/18 06:22:19;;;;;;;7.82;3.10;;;9.00;99.90;;;8.77;100.00;97869.25;4986717;28;20149;-37
2023/05/18 06:24:46;;;;;;;9.18;3.17;;;9.20;99.90;;;8.90;100.00;97860.22;4986743;28;20346;-36
2023/05/18 06:27:12;;;;;;;10.55;3.20;;;9.40;99.90;;;9.15;100.00;97876.28;4989965;28;20034;-37
2023/05/18 06:29:37;;;;;;;11.77;3.58;;;9.50;99.90;;;9.32;100.00;97878.50;4990295;28;20065;-36
2023/05/18 06:32:03;;;;;;;7.75;2.95;;;9.70;99.90;;;9.47;100.00;97866.72;4988952;28;20035;-37
2023/05/18 06:34:29;;;;;;;6.95;2.85;;;9.80;99.90;;;9.64;100.00;97876.00;4982927;28;20037;-36
2023/05/18 06:36:55;;;;;;;12.18;3.40;;;9.90;99.90;;;9.71;97.05;97867.88;4989801;28;20517;-37
2023/05/18 06:39:20;;;;;;;9.75;3.22;;;10.10;99.90;;;9.73;94.41;97870.50;4988287;28;20041;-36
2023/05/18 06:41:46;;;;;;;7.75;3.20;;;10.10;99.90;;;9.84;95.89;97868.44;4989546;28;20104;-37
2023/05/18 06:44:13;;;;;;;7.45;2.78;;;10.20;99.90;;;9.96;95.72;97869.00;4991811;28;20096;-36
2023/05/18 06:46:40;;;;;;;13.18;3.20;;;10.30;99.90;;;9.93;92.10;97872.59;4988878;28;20034;-37
2023/05/18 06:49:05;;;;;;;6.75;2.92;;;10.30;99.90;;;9.97;93.40;97876.84;4991464;28;20176;-37
2023/05/18 06:51:32;;;;;;;7.32;3.00;;;10.40;99.90;;;9.98;91.09;97872.44;4991712;28;20022;-36
2023/05/18 06:53:57;;;;;;;6.78;2.97;;;10.40;99.90;;;10.06;90.22;97881.88;4988488;28;20393;-36
2023/05/18 06:56:23;;;;;;;6.32;3.38;;;10.50;99.90;;;10.16;90.96;97876.34;4992618;28;20041;-36
2023/05/18 06:58:49;;;;;;;7.78;2.80;;;10.60;99.90;;;10.38;90.31;97874.88;4990106;28;20501;-37
2023/05/18 07:01:16;;;;;;;9.13;2.92;;;10.70;99.90;;;10.52;94.07;97879.78;4987787;28;20421;-38
2023/05/18 07:03:42;;;;;;;5.72;2.63;;;10.80;99.90;;;10.60;90.47;97869.00;4990250;28;20064;-37
2023/05/18 07:06:08;;;;;;;5.88;2.67;;;10.90;99.90;;;10.76;91.60;97874.69;4987042;28;20399;-39
2023/05/18 07:08:35;;;;;;;5.13;2.38;;;11.00;99.90;;;11.00;91.42;97884.50;4984574;28;20021;-37
2023/05/18 07:11:02;;;;;;;5.53;2.72;;;11.10;99.90;;;11.23;88.79;97880.25;4983887;28;20036;-39
2023/05/18 07:13:28;;;;;;;7.53;2.83;;;11.30;99.90;;;11.45;83.50;97881.28;4993167;28;20030;-37
2023/05/18 07:15:54;;;;;;;9.95;3.15;;;11.50;99.90;;;11.42;83.93;97876.09;4990695;28;20139;-37
2023/05/18 07:18:19;;;;;;;8.07;3.50;;;11.60;99.90;;;11.44;76.84;97881.34;4990909;28;20104;-37
2023/05/18 07:20:45;;;;;;;13.00;3.40;;;11.80;99.90;;;11.47;77.60;97886.53;4990133;28;20409;-38
2023/05/18 07:23:12;;;;;;;13.38;3.70;;;11.80;99.90;;;11.50;79.80;97881.13;4990177;28;20041;-38
2023/05/18 07:25:37;;;;;;;7.25;3.03;;;11.80;99.90;;;11.45;77.51;97883.94;4987228;28;20121;-37
2023/05/18 07:28:03;;;;;;;7.70;3.25;;;11.80;99.90;;;11.57;78.56;97880.00;4974995;28;20029;-37
2023/05/18 07:30:29;;;;;;;7.10;3.00;;;11.90;99.90;;;11.64;77.81;97876.25;4975721;28;20632;-37
2023/05/18 07:32:55;;;;;;;14.50;3.50;;;12.00;99.90;;;11.64;78.27;97878.88;4976117;28;20056;-37
2023/05/18 07:35:21;;;;;;;11.10;3.80;;;12.00;99.90;;;11.67;78.34;97879.72;4978686;28;20052;-37
2023/05/18 07:37:50;;;;;;;8.55;2.75;;;12.10;99.90;;;11.77;78.21;97882.00;4982353;28;20525;-37
2023/05/18 07:40:16;;;;;;;8.48;2.90;;;12.10;99.90;;;11.93;78.45;97878.84;4983586;28;20037;-37
2023/05/18 07:42:42;;;;;;;8.88;2.88;;;12.20;99.90;;;12.06;77.61;97874.00;4991504;28;20034;-37
2023/05/18 07:45:09;;;;;;;6.07;2.72;;;12.40;99.90;;;11.98;73.06;97874.28;4991376;28;20033;-37
2023/05/18 07:47:35;;;;;;;6.93;2.80;;;12.50;99.90;;;12.01;75.99;97858.31;4994677;28;20041;-37
2023/05/18 07:50:01;;;;;;;5.88;2.70;;;12.40;99.90;;;12.21;77.12;97868.16;4982652;28;20030;-37
2023/05/18 07:52:27;;;;;;;8.10;2.85;;;12.60;99.90;;;12.20;71.56;97872.59;4991464;28;20030;-37
2023/05/18 07:54:55;;;;;;;7.72;3.30;;;12.60;99.90;;;12.34;73.29;97873.88;4992148;28;20128;-39
2023/05/18 07:57:21;;;;;;;7.53;3.10;;;12.70;99.90;;;12.49;77.25;97865.38;4994770;28;20036;-37
2023/05/18 07:59:47;;;;;;;5.93;2.63;;;12.80;99.90;;;12.65;73.72;97856.84;4995589;28;20395;-37
2023/05/18 08:02:15;;;;;;;9.00;3.15;;;13.00;99.90;;;12.68;68.43;97865.53;4988962;28;20035;-37
2023/05/18 08:04:41;;;;;;;8.88;2.95;;;13.10;99.90;;;12.76;70.96;97859.97;4992851;28;20038;-37
2023/05/18 08:07:07;;;;;;;11.00;3.63;;;13.20;99.90;;;12.94;67.83;97855.75;4994498;28;20048;-37
2023/05/18 08:09:33;;;;;;;8.68;3.58;;;13.30;99.90;;;13.06;69.56;97857.88;4993327;28;20511;-37
2023/05/18 08:11:59;;;;;;;8.68;3.17;;;13.40;99.90;;;13.28;68.92;97864.97;4991769;28;20045;-37
2023/05/18 08:14:25;;;;;;;7.47;3.05;;;13.60;99.90;;;13.39;65.52;97852.22;4991056;28;20116;-36
2023/05/18 08:16:51;;;;;;;8.55;2.78;;;13.80;99.90;;;13.54;64.66;97864.81;4988769;28;20695;-37
2023/05/18 08:19:16;;;;;;;5.25;2.80;;;13.90;99.90;;;13.67;62.05;97856.34;4990393;28;20039;-37
2023/05/18 08:21:44;;;;;;;7.65;3.10;;;14.00;99.90;;;13.82;64.62;97861.00;4993296;28;20058;-37
2023/05/18 08:24:10;;;;;;;9.30;3.10;;;14.20;99.90;;;13.85;63.95;97842.28;4991658;28;20037;-37
2023/05/18 08:26:35;;;;;;;14.25;3.50;;;14.30;99.90;;;13.96;59.25;97862.19;4991842;28;20107;-37
2023/05/18 08:29:08;;;;;;;9.75;3.60;;;14.40;99.90;;;13.94;59.05;97865.78;4992496;28;20041;-37
2023/05/18 08:31:38;;;;;;;7.88;2.92;;;14.40;99.90;;;13.93;60.01;97845.50;4994063;28;20032;-37
2023/05/18 08:34:05;;;;;;;6.72;2.97;;;14.40;99.90;;;13.97;61.72;97851.53;4977909;28;20066;-37
2023/05/18 08:36:33;;;;;;;6.85;2.90;;;14.30;99.90;;;14.00;60.17;97837.25;4987068;28;20030;-37
2023/05/18 08:38:59;;;;;;;9.43;3.45;;;14.40;99.90;;;14.10;56.91;97843.88;4983590;28;20038;-37
2023/05/18 08:41:38;;;;;;;8.43;3.30;;;14.50;99.90;;;13.99;56.64;97843.50;4981618;28;20037;-37
2023/05/18 08:44:15;;;;;;;11.48;3.17;;;14.40;99.90;;;13.97;53.48;97843.56;4985491;28;20513;-37
2023/05/18 08:46:47;;;;;;;7.90;2.53;;;14.40;99.90;;;13.91;53.94;97838.56;4982956;28;20500;-37
2023/05/18 08:49:17;;;;;;;8.52;2.88;;;14.40;99.90;;;14.07;56.45;97844.91;4990741;28;20163;-37
2023/05/18 08:51:46;;;;;;;13.25;3.10;;;14.50;99.90;;;14.34;56.59;97839.31;4988476;28;20034;-37
2023/05/18 08:54:22;;;;;;;8.32;2.92;;;14.70;99.90;;;14.44;53.47;97837.94;4990509;28;20034;-37
2023/05/18 08:56:48;;;;;;;6.88;2.83;;;14.90;99.90;;;14.59;55.24;97839.06;4988305;28;20076;-37
2023/05/18 08:59:26;;;;;;;8.18;2.67;;;15.00;99.90;;;14.72;53.06;97841.16;4986642;28;20615;-37
2023/05/18 09:01:53;;;;;;;7.97;2.85;;;15.10;99.90;;;14.77;52.90;97829.38;4986348;28;20120;-37
2023/05/18 09:04:20;;;;;;;6.53;2.38;;;15.20;99.90;;;14.95;52.58;97822.34;4987619;28;20045;-37
2023/05/18 09:06:48;;;;;;;5.63;2.33;;;15.40;99.90;;;15.04;51.57;97831.66;4986783;28;20192;-37
2023/05/18 09:09:15;;;;;;;13.82;3.40;;;15.60;99.90;;;15.13;48.91;97819.72;4993545;28;20101;-37
2023/05/18 09:11:41;;;;;;;8.88;3.00;;;15.70;98.80;;;15.33;51.50;97821.41;4988365;28;20030;-37
2023/05/18 09:14:07;;;;;;;10.85;2.90;;;15.80;99.90;;;15.43;47.95;97826.19;4980713;28;20490;-37
2023/05/18 09:16:32;;;;;;;6.72;2.90;;;16.00;97.90;;;15.51;49.62;97830.28;4981787;28;20042;-37
2023/05/18 09:18:59;;;;;;;9.77;2.55;;;16.00;98.30;;;15.72;50.16;97818.56;4983014;28;20056;-37
2023/05/18 09:21:25;;;;;;;7.63;2.60;;;16.20;99.20;;;16.02;53.57;97828.56;4985668;28;20064;-37
2023/05/18 09:23:51;;;;;;;7.55;3.42;;;16.40;99.90;;;16.19;47.65;97820.56;4983358;28;20036;-37
2023/05/18 09:26:19;;;;;;;10.63;3.13;;;16.60;97.60;;;16.51;47.32;97831.28;4983439;28;20932;-37
2023/05/18 09:28:48;;;;;;;7.85;2.67;;;16.80;96.80;;;16.53;45.33;97832.06;4987735;28;20041;-37
2023/05/18 09:31:18;;;;;;;7.88;2.72;;;16.90;95.40;;;16.71;49.07;97822.22;4983448;28;20030;-36
2023/05/18 09:33:46;;;;;;;8.30;3.10;;;17.10;97.70;;;16.80;44.35;97834.16;4988184;28;20026;-37
2023/05/18 09:36:14;;;;;;;9.77;3.30;;;17.30;94.70;;;16.95;44.28;97821.81;4982634;28;20048;-38
2023/05/18 09:38:44;;;;;;;7.32;3.13;;;17.40;94.20;;;17.03;44.75;97826.72;4990116;28;20026;-37
2023/05/18 09:41:17;;;;;;;11.55;2.67;;;17.50;94.10;;;17.05;45.27;97828.38;4988014;28;20076;-38
2023/05/18 09:43:46;;;;;;;7.60;2.67;;;17.50;94.10;;;17.26;45.95;97830.75;4987813;28;20036;-37
2023/05/18 09:46:13;;;;;;;7.72;3.13;;;17.70;95.50;;;17.23;43.02;97818.47;4987824;28;20030;-37
2023/05/18 09:48:51;;;;;;;9.43;3.70;;;17.80;93.00;;;17.13;44.73;97825.25;4987889;28;20768;-37
2023/05/18 09:51:17;;;;;;;7.05;2.80;;;17.70;93.20;;;17.00;43.15;97805.59;4989670;28;20478;-37
2023/05/18 09:53:57;;;;;;;9.45;3.25;;;17.60;92.20;;;16.98;45.25;97817.19;4990698;28;20030;-36
2023/05/18 09:56:25;;;;;;;7.00;3.40;;;17.60;93.80;;;16.73;44.47;97816.81;4987882;28;20494;-37
2023/05/18 09:58:52;;;;;;;7.40;2.97;;;17.30;92.70;;;16.56;43.77;97821.25;4985915;28;20536;-37
2023/05/18 10:01:18;;;;;;;7.63;2.90;;;17.10;92.10;;;16.22;44.83;97815.09;4989380;28;20040;-37
2023/05/18 10:03:47;;;;;;;9.25;2.83;;;16.90;92.60;;;16.15;43.65;97811.03;4979468;28;20026;-37
2023/05/18 10:06:13;;;;;;;6.57;2.92;;;16.70;91.90;;;16.21;46.08;97813.34;4984177;28;20041;-37
2023/05/18 10:08:39;;;;;;;9.20;3.20;;;16.60;93.20;;;16.25;48.38;97814.06;4985913;28;20143;-37
2023/05/18 10:11:06;;;;;;;9.43;3.03;;;16.70;94.90;;;15.99;45.50;97807.47;4989228;28;20045;-37
2023/05/18 10:13:33;;;;;;;6.97;2.60;;;16.60;92.90;;;15.67;45.65;97796.66;4989876;28;20077;-37
2023/05/18 10:16:04;;;;;;;8.57;2.65;;;16.30;92.80;;;15.44;45.63;97805.78;4980172;28;20045;-37
2023/05/18 10:18:34;;;;;;;9.55;3.45;;;16.00;92.40;;;15.40;47.48;97804.22;4986426;28;20292;-37
2023/05/18 10:21:01;;;;;;;11.10;3.22;;;15.80;94.20;;;15.48;45.53;97802.03;4988052;28;20121;-37
2023/05/18 10:23:32;;;;;;;8.88;3.00;;;15.90;93.10;;;15.65;45.59;97798.53;4984942;28;20026;-37